Share

Osijek - Cepin, Croatia

Retfala (IUNDEFIN78) Elev 285 ft | 45.56 °N, 18.65 °E | Change Station

Current weather conditions updated 10 seconds ago

Partly Cloudy
Partly Cloudy
61.3 °F
Feels Like 61.3 °F
N
3.6
Wind Variable Wind from WNW
Gusts 6.3 mph
Sunrise 5:53 AM
Sunset 7:36 PM
Moon Waning Gibbous

Tomorrow is forecast to be nearly the same temperature as today. Morning showers.

Pressure 29.68 in
Visibility 6.2 miles
Clouds Few 4300 ft
Dew Point 43 °F
Humidity 50%
Rainfall 0.00 in
Snow Depth Not available.
UV 3 out of 16
Pollen Not available.
Air Quality Not available.
Flu Activity Not available.
METAR LDOS 191430Z 30009KT 9999 FEW043 17/12 Q1005

More Conditions Fewer Conditions

Pressure 29.68 in
Visibility 6.2 miles
Clouds Few 4300 ft
Dew Point 43 °F
Humidity 50%
Rainfall 0.00 in
Snow Depth Not available.
UV 3 out of 16
Pollen Not available.
Air Quality Not available.
Flu Activity Not available.
METAR LDOS 191430Z 30009KT 9999 FEW043 17/12 Q1005

More Conditions Fewer Conditions

10-Day Weather Forecast

Almanac

Astronomy

Apr. 19, 2014 Rise Set
Actual Time 5:53 AM CEST 7:36 PM CEST
Civil Twilight 5:22 AM CEST 8:08 PM CEST
Nautical Twilight 4:44 AM CEST 8:46 PM CEST
Astronomical Twilight 4:02 AM CEST 9:28 PM CEST
Moon No Moon Rise 8:47 AM CEST
Length of Visible Light 14h 45m
Length of Day
13h 43m
Tomorrow will be 3m 1s longer.
Waning Gibbous, 79% of the Moon is Illuminated
Today
Waning Gibbous
Apr 22
Last Quarter
Apr 29
New
May 6
First Quarter
May 14
Full

Today's Extremes

Country Highs Country Lows

Community

  • A Glorious Morning
    A Glorious Morning
  • Tender Rays Of Hope
    Tender Rays Of Hope
  • Bleeding Hearts
    Bleeding Hearts
  • Sunset Silhouettes
    Sunset Silhouettes
  • FL sunset Perico Isle
    FL sunset Perico Isle

WunderPhotos

Upload Photos

1,702,755 photos uploaded!

WunderBlogs® & News

Nearby

Snow Depth

Not available.

Coastal Water Temperatures

Place Temperature
No Stations Reporting

Earthquake Activity

City Distance Mag. Time & Date
No recent earthquake activity has been reported nearby.
Minimum magnitude displayed is 2.5.

Nearby Weather Stations

Station Location Temp. Dew Point Humidity Wind Precip. Elev Updated Type
Retfala, Osijek 61.3 °F 43 °F 50% WNW  at  3.6 mph 0.00 in / hr 285 ft 4:54 PM CEST Rapid Fire
Bilje 61.3 °F 53 °F 74% North  at  0.0 mph 0.00 in / hr 276 ft 4:49 PM CEST Normal
Djakovo, Pasenica, Đakovo 60.4 °F 52 °F 75% West  at  4.0 mph 0.00 in / hr 344 ft 4:54 PM CEST Rapid Fire

Show More Stations Show Fewer Stations

What do you think?

We're not finished. Please let us know what you like, what you don't like, and what you are still missing.